Maysville, Missouri
Current Conditions -  °F | °C
As of 6:53 PM on Saturday 22 Nov 2014 (Local Time) from KSTJ Reporting Station
Broken Clouds Broken Clouds  
Wind Chill: 12°   Ceiling: 2300
Heat Index: 12°   Visibility: 10mi
Dew Point: 10°   Wind: 13mph
Humidity: 89%   Direction: 180°S
Pressure: 29.72"   Gusts: NA
Location:  39.89°N, 94.36°W
Report Text: KSTJ 230053Z AUTO 18011KT 10SM BKN023 12/10 A2972 RMK AO2 SLP066 T01170100
Loading
Personal Weather Stations






























Interactive Weather Map New forecast layout! Learn more

10-Day Weather Forecast

Advertisements
Track Severe Weather on mobile